Time;durP1;ratioP1;P1;durP2;ratioP2;P2;SDS_P1;SDS_P2;PMS_P1;PMS_P2;Temp;Humidity;BMP_temperature;BMP_pressure;BME280_temperature;BME280_humidity;BME280_pressure;Samples;Min_cycle;Max_cycle;Signal;HPM_P1;HPM_P2
2022/01/18 00:00:39;;;;;;;36.13;10.87;;;4.70;99.90;;;;;;5031154;28;20510;-82
2022/01/18 00:03:06;;;;;;;37.20;9.70;;;4.60;99.90;;;;;;5017388;28;20295;-83
2022/01/18 00:05:33;;;;;;;31.17;8.52;;;4.70;99.90;;;;;;5017354;28;20117;-82
2022/01/18 00:08:00;;;;;;;39.10;9.43;;;4.60;99.90;;;;;;5029093;28;20411;-84
2022/01/18 00:10:30;;;;;;;28.48;9.35;;;4.70;99.90;;;;;;5061452;28;20208;-82
2022/01/18 00:15:56;;;;;;;27.25;8.68;;;4.60;99.90;;;;;;5034815;28;20053;-82
2022/01/18 00:18:23;;;;;;;29.23;9.23;;;4.60;99.90;;;;;;5015877;28;20045;-81
2022/01/18 00:23:50;;;;;;;30.55;10.05;;;4.70;99.90;;;;;;5031338;28;20129;-82
2022/01/18 00:26:18;;;;;;;22.35;7.97;;;4.70;99.90;;;;;;5030792;28;20403;-82
2022/01/18 00:28:51;;;;;;;29.83;10.30;;;4.70;99.90;;;;;;5051014;28;20645;-81
2022/01/18 00:31:41;;;;;;;32.72;11.45;;;4.70;99.90;;;;;;5031068;28;20041;-83
2022/01/18 00:34:32;;;;;;;38.92;9.65;;;4.60;99.90;;;;;;5031054;28;20049;-81
2022/01/18 00:39:22;;;;;;;31.15;11.23;;;4.60;99.90;;;;;;5046216;28;20071;-80
2022/01/18 00:41:49;;;;;;;41.45;10.50;;;4.60;99.90;;;;;;5035777;28;20049;-81
2022/01/18 00:44:16;;;;;;;29.38;9.70;;;4.70;99.90;;;;;;5045518;28;20175;-81
2022/01/18 00:46:44;;;;;;;25.13;8.77;;;4.70;99.90;;;;;;5030111;28;20081;-81
2022/01/18 00:49:13;;;;;;;29.42;9.10;;;4.70;99.90;;;;;;5030985;28;20086;-82
2022/01/18 00:51:44;;;;;;;23.75;8.15;;;4.70;99.90;;;;;;5029322;28;20041;-81
2022/01/18 00:54:21;;;;;;;21.48;7.65;;;4.70;99.90;;;;;;5029558;28;20718;-82
2022/01/18 00:56:51;;;;;;;30.05;9.10;;;4.70;99.90;;;;;;5030052;28;20041;-82
2022/01/18 00:59:20;;;;;;;32.92;8.18;;;4.80;99.90;;;;;;5029237;28;20052;-82
2022/01/18 01:01:47;;;;;;;29.30;8.45;;;4.80;99.90;;;;;;5028165;28;20510;-82
2022/01/18 01:04:15;;;;;;;20.15;6.22;;;4.80;99.90;;;;;;5047271;28;20052;-82
2022/01/18 01:06:42;;;;;;;20.35;6.85;;;4.70;99.90;;;;;;5012486;28;20033;-81
2022/01/18 01:09:10;;;;;;;14.40;6.03;;;4.70;99.90;;;;;;5027200;28;20045;-82
2022/01/18 01:11:39;;;;;;;20.52;6.40;;;4.70;99.90;;;;;;5011633;28;20037;-82
2022/01/18 01:14:12;;;;;;;23.52;5.97;;;4.70;99.90;;;;;;5029608;28;20052;-82
2022/01/18 01:16:51;;;;;;;16.27;6.55;;;4.70;99.90;;;;;;5028652;28;20049;-82
2022/01/18 01:35:42;;;;;;;23.10;7.90;;;4.80;99.90;;;;;;5026496;28;20142;-79
2022/01/18 01:46:29;;;;;;;20.23;6.18;;;4.70;99.90;;;;;;5049658;28;20033;-82
2022/01/18 01:48:58;;;;;;;17.75;6.43;;;4.70;99.90;;;;;;5031158;28;20692;-81
2022/01/18 01:51:31;;;;;;;24.48;7.03;;;4.70;99.90;;;;;;5030150;28;20075;-81
2022/01/18 01:54:01;;;;;;;19.42;7.18;;;4.60;99.90;;;;;;5027423;28;20064;-81
2022/01/18 01:56:29;;;;;;;17.20;6.45;;;4.60;99.90;;;;;;5029509;28;20075;-83
2022/01/18 01:58:57;;;;;;;20.17;8.13;;;4.70;99.90;;;;;;5031650;28;20049;-82
2022/01/18 02:01:24;;;;;;;26.02;7.28;;;4.70;99.90;;;;;;5014187;28;20087;-82
2022/01/18 02:03:51;;;;;;;21.67;6.30;;;4.70;99.90;;;;;;5033755;28;20780;-82
2022/01/18 02:06:19;;;;;;;21.88;6.75;;;4.60;99.90;;;;;;5042534;28;20033;-82
2022/01/18 02:08:46;;;;;;;16.23;6.28;;;4.70;99.90;;;;;;5032111;28;20102;-82
2022/01/18 02:11:13;;;;;;;20.23;7.15;;;4.70;99.90;;;;;;5029838;28;20037;-82
2022/01/18 02:13:40;;;;;;;24.85;6.97;;;4.70;99.90;;;;;;5015877;28;20056;-82
2022/01/18 02:24:10;;;;;;;24.05;9.95;;;4.80;99.90;;;;;;5049988;28;20076;-80
2022/01/18 02:26:37;;;;;;;23.98;8.48;;;4.80;99.90;;;;;;5032200;28;20521;-80
2022/01/18 02:29:06;;;;;;;30.73;9.80;;;4.80;99.90;;;;;;5031783;28;20621;-81
2022/01/18 02:31:34;;;;;;;21.05;7.93;;;4.80;99.90;;;;;;5030066;28;20110;-80
2022/01/18 02:34:06;;;;;;;23.52;8.05;;;4.80;99.90;;;;;;5013654;28;20068;-81
2022/01/18 02:36:33;;;;;;;19.77;8.70;;;4.80;99.90;;;;;;5005457;28;20114;-80
2022/01/18 02:39:00;;;;;;;23.75;9.45;;;4.70;99.90;;;;;;5028214;28;20072;-81
2022/01/18 02:41:30;;;;;;;26.63;9.57;;;4.80;99.90;;;;;;5023151;28;20045;-80
2022/01/18 02:44:06;;;;;;;22.42;8.45;;;4.80;99.90;;;;;;5034775;28;20049;-80
2022/01/18 02:46:33;;;;;;;15.90;7.32;;;4.80;99.90;;;;;;5029044;28;20136;-79
2022/01/18 02:49:03;;;;;;;22.15;8.48;;;4.80;99.90;;;;;;5012373;28;20147;-80
2022/01/18 02:51:30;;;;;;;21.70;7.53;;;4.80;99.90;;;;;;5012835;28;20506;-80
2022/01/18 02:54:11;;;;;;;22.27;8.35;;;4.80;99.90;;;;;;5045628;22;20071;-78
2022/01/18 02:56:46;;;;;;;17.83;8.73;;;4.80;99.90;;;;;;5021637;28;20042;-78
2022/01/18 03:04:28;;;;;;;31.40;10.45;;;4.80;99.90;;;;;;5052867;28;20049;-78
2022/01/18 03:06:55;;;;;;;30.92;11.23;;;4.80;99.90;;;;;;5026390;28;20041;-78
2022/01/18 03:09:21;;;;;;;33.72;11.68;;;4.80;99.90;;;;;;5040468;28;20091;-78
2022/01/18 03:11:48;;;;;;;31.80;12.65;;;4.80;99.90;;;;;;5039861;28;20143;-78
2022/01/18 03:14:15;;;;;;;33.25;13.25;;;4.80;99.90;;;;;;5031600;28;20095;-78
2022/01/18 03:16:42;;;;;;;39.33;13.27;;;4.80;99.90;;;;;;5020695;28;20045;-78
2022/01/18 03:19:09;;;;;;;34.55;12.38;;;4.80;99.90;;;;;;5036687;28;20508;-78
2022/01/18 03:21:36;;;;;;;36.97;12.15;;;4.90;99.90;;;;;;5025276;28;20065;-78
2022/01/18 03:24:19;;;;;;;35.10;14.10;;;4.80;99.90;;;;;;5039795;28;20107;-78
2022/01/18 03:29:33;;;;;;;37.70;12.15;;;4.80;99.90;;;;;;5028987;28;20076;-77
2022/01/18 03:32:00;;;;;;;37.08;12.43;;;4.70;99.90;;;;;;5042027;28;20053;-78
2022/01/18 03:34:27;;;;;;;31.27;12.13;;;4.70;99.90;;;;;;5030543;28;20131;-78
2022/01/18 03:36:55;;;;;;;29.90;11.65;;;4.70;99.90;;;;;;5036503;28;20048;-78
2022/01/18 03:39:22;;;;;;;27.77;12.02;;;4.70;99.90;;;;;;5040405;28;20087;-78
2022/01/18 03:41:54;;;;;;;25.33;10.65;;;4.70;99.90;;;;;;5039288;28;20080;-78
2022/01/18 03:44:25;;;;;;;29.35;11.02;;;4.80;99.90;;;;;;5026511;28;20179;-78
2022/01/18 03:46:53;;;;;;;24.70;9.55;;;4.80;99.90;;;;;;5037037;28;20075;-78
2022/01/18 03:49:23;;;;;;;32.47;10.05;;;4.80;99.90;;;;;;5009215;28;20289;-78
2022/01/18 03:51:51;;;;;;;37.10;11.07;;;4.90;99.90;;;;;;5007658;28;20054;-78
2022/01/18 03:54:22;;;;;;;27.73;10.82;;;4.90;99.90;;;;;;5009477;28;20079;-78
2022/01/18 03:56:49;;;;;;;38.20;11.27;;;4.90;99.90;;;;;;5020327;28;20114;-78
2022/01/18 03:59:16;;;;;;;37.83;10.82;;;4.80;99.90;;;;;;5044214;28;20273;-78
2022/01/18 04:01:43;;;;;;;33.58;11.23;;;4.80;99.90;;;;;;5047113;28;20598;-78
2022/01/18 04:04:12;;;;;;;52.13;14.10;;;4.90;99.90;;;;;;5047513;28;20040;-78
2022/01/18 04:06:39;;;;;;;96.15;18.42;;;4.80;99.90;;;;;;5031086;28;20041;-78
2022/01/18 04:09:06;;;;;;;69.50;15.93;;;4.80;99.90;;;;;;5044824;28;20641;-78
2022/01/18 04:11:33;;;;;;;65.30;14.45;;;4.80;99.90;;;;;;5024188;28;20131;-78
2022/01/18 04:14:00;;;;;;;72.45;15.32;;;4.80;99.90;;;;;;5043800;28;20041;-78
2022/01/18 04:16:27;;;;;;;88.22;17.80;;;4.80;99.90;;;;;;5043604;28;20106;-77
2022/01/18 04:19:23;;;;;;;117.13;19.25;;;4.80;99.90;;;;;;5041269;28;20088;-76
2022/01/18 04:25:52;;;;;;;35.40;12.10;;;4.80;99.90;;;;;;5024070;28;20102;-76
2022/01/18 04:27:20;;;;;;;26.48;9.60;;;4.80;99.90;;;;;;5021192;28;20265;-76
2022/01/18 04:29:47;;;;;;;26.73;9.38;;;4.80;99.90;;;;;;5022054;28;20171;-76
2022/01/18 04:32:17;;;;;;;20.90;9.57;;;4.80;99.90;;;;;;5040353;28;20740;-76
2022/01/18 04:34:44;;;;;;;22.58;9.13;;;4.80;99.90;;;;;;5040001;28;20049;-76
2022/01/18 04:37:14;;;;;;;24.27;9.88;;;4.80;99.90;;;;;;5025729;28;20049;-76
2022/01/18 04:39:42;;;;;;;28.85;10.32;;;4.80;99.90;;;;;;5020945;28;20504;-76
2022/01/18 04:42:29;;;;;;;26.45;10.20;;;4.80;99.90;;;;;;5022332;28;20067;-76
2022/01/18 04:50:26;;;;;;;23.63;9.00;;;4.80;99.90;;;;;;5038918;28;20057;-76
2022/01/18 04:52:53;;;;;;;21.52;8.60;;;4.90;99.90;;;;;;5039501;28;20049;-76
2022/01/18 04:55:20;;;;;;;21.08;9.00;;;4.90;99.90;;;;;;5039555;28;20105;-76
2022/01/18 04:57:53;;;;;;;20.48;9.20;;;4.80;99.90;;;;;;5022996;28;20145;-76
2022/01/18 05:00:24;;;;;;;27.50;10.90;;;4.80;99.90;;;;;;5006368;28;20354;-76
2022/01/18 05:02:52;;;;;;;34.97;12.10;;;4.80;99.90;;;;;;5038596;28;20558;-76
2022/01/18 05:05:25;;;;;;;60.88;13.25;;;4.90;99.90;;;;;;5021694;28;20451;-76
2022/01/18 05:07:53;;;;;;;35.60;11.55;;;4.90;99.90;;;;;;5031680;28;20354;-76
2022/01/18 05:10:23;;;;;;;47.75;13.63;;;4.90;99.90;;;;;;5028760;28;20115;-76
2022/01/18 05:12:53;;;;;;;49.38;12.98;;;4.90;99.90;;;;;;5041046;28;20100;-76
2022/01/18 05:21:08;;;;;;;17.63;7.65;;;4.80;99.90;;;;;;5038918;28;20061;-76
2022/01/18 05:23:30;;;;;;;19.73;8.07;;;4.80;99.90;;;;;;5038133;28;20049;-76
2022/01/18 05:25:57;;;;;;;19.05;8.13;;;4.80;99.90;;;;;;5039728;28;20846;-76
2022/01/18 05:28:24;;;;;;;19.35;7.72;;;4.80;99.90;;;;;;5037881;28;20523;-76
2022/01/18 05:30:50;;;;;;;18.55;6.70;;;4.80;99.90;;;;;;5038378;28;20115;-76
2022/01/18 05:33:18;;;;;;;18.10;6.82;;;4.90;99.90;;;;;;5040287;28;20115;-76
2022/01/18 05:35:45;;;;;;;20.45;6.82;;;4.80;99.90;;;;;;5016981;28;20053;-76
2022/01/18 05:38:16;;;;;;;23.10;8.23;;;4.80;99.90;;;;;;5035115;28;20053;-76
2022/01/18 05:40:43;;;;;;;26.10;8.85;;;4.90;99.90;;;;;;5030512;28;20465;-76
2022/01/18 05:43:10;;;;;;;42.90;11.90;;;4.90;99.90;;;;;;5022471;28;20145;-76
2022/01/18 05:45:36;;;;;;;81.82;14.38;;;4.90;99.90;;;;;;5038387;28;20045;-76
2022/01/18 05:48:03;;;;;;;45.10;13.88;;;4.90;99.90;;;;;;5025344;28;20323;-76
2022/01/18 05:50:30;;;;;;;35.55;12.35;;;4.90;99.90;;;;;;5042878;28;20041;-76
2022/01/18 05:52:57;;;;;;;36.35;11.32;;;4.90;99.90;;;;;;5025809;28;20077;-76
2022/01/18 05:55:23;;;;;;;32.70;11.63;;;4.90;99.90;;;;;;5043565;28;20123;-76
2022/01/18 05:57:50;;;;;;;28.63;10.75;;;4.90;99.90;;;;;;5025296;28;20613;-76
2022/01/18 06:00:22;;;;;;;29.45;10.65;;;5.00;99.90;;;;;;5040934;28;20167;-76
2022/01/18 06:08:03;;;;;;;30.38;11.10;;;5.10;99.90;;;;;;5053719;28;20372;-77
2022/01/18 06:10:30;;;;;;;36.50;12.55;;;5.10;99.90;;;;;;5034609;28;20124;-76
2022/01/18 06:12:56;;;;;;;37.55;13.23;;;5.00;99.90;;;;;;5045494;28;20155;-76
2022/01/18 06:15:23;;;;;;;34.30;11.95;;;5.00;99.90;;;;;;5024273;28;20515;-76
2022/01/18 06:17:51;;;;;;;48.90;14.27;;;5.00;99.90;;;;;;5040197;28;20101;-76
2022/01/18 06:20:17;;;;;;;218.60;30.08;;;5.00;99.90;;;;;;5029439;28;20204;-76
2022/01/18 06:22:44;;;;;;;48.10;16.13;;;5.10;99.90;;;;;;5041145;28;20084;-76
2022/01/18 06:25:11;;;;;;;69.30;17.17;;;5.20;99.90;;;;;;5042051;28;20049;-77
2022/01/18 06:27:38;;;;;;;146.38;25.10;;;5.20;99.90;;;;;;5025766;28;20538;-76
2022/01/18 06:30:09;;;;;;;246.45;31.27;;;5.20;99.90;;;;;;5042159;28;20161;-76
2022/01/18 06:32:38;;;;;;;341.25;38.03;;;5.10;99.90;;;;;;5041602;28;20059;-76
2022/01/18 06:35:06;;;;;;;399.20;42.05;;;5.10;99.90;;;;;;5042506;28;20507;-76
2022/01/18 06:37:33;;;;;;;355.58;40.65;;;5.20;99.90;;;;;;5029262;28;20049;-77
2022/01/18 06:40:03;;;;;;;458.17;48.78;;;5.20;99.90;;;;;;5016361;28;20049;-77
2022/01/18 06:42:30;;;;;;;438.73;45.85;;;5.20;99.90;;;;;;5024315;28;20503;-77
2022/01/18 06:44:58;;;;;;;412.65;41.13;;;5.20;99.90;;;;;;5025195;28;20135;-76
2022/01/18 06:47:25;;;;;;;490.52;47.17;;;5.20;99.90;;;;;;5009443;28;20251;-76
2022/01/18 06:49:52;;;;;;;519.05;52.00;;;5.20;99.90;;;;;;5038285;28;20088;-77
2022/01/18 06:52:19;;;;;;;377.73;44.60;;;5.20;99.90;;;;;;5043228;28;20137;-76
2022/01/18 06:54:45;;;;;;;403.85;43.08;;;5.20;99.90;;;;;;5019121;28;20049;-76
2022/01/18 06:57:14;;;;;;;465.23;49.67;;;5.30;99.90;;;;;;5003249;28;20045;-76
2022/01/18 06:59:41;;;;;;;394.52;43.40;;;5.30;99.90;;;;;;5004077;28;20052;-76
2022/01/18 07:02:09;;;;;;;432.48;44.28;;;5.20;99.90;;;;;;5023204;28;20430;-76
2022/01/18 07:04:36;;;;;;;376.30;43.13;;;5.20;99.90;;;;;;5022544;28;20060;-76
2022/01/18 07:07:04;;;;;;;481.02;51.03;;;5.10;99.90;;;;;;5023002;28;20150;-76
2022/01/18 07:09:32;;;;;;;343.42;43.75;;;5.20;99.90;;;;;;5038273;28;20303;-76
2022/01/18 07:12:00;;;;;;;428.33;51.33;;;5.10;99.90;;;;;;5018659;28;20133;-75
2022/01/18 07:14:28;;;;;;;542.67;57.75;;;5.10;99.90;;;;;;5021380;28;20054;-76
2022/01/18 07:16:54;;;;;;;528.25;55.42;;;5.10;99.90;;;;;;5022487;28;20076;-76
2022/01/18 07:19:21;;;;;;;505.55;56.92;;;5.20;99.90;;;;;;5022362;28;20053;-76
2022/01/18 07:21:48;;;;;;;600.85;63.47;;;5.20;99.90;;;;;;5021812;28;20084;-76
2022/01/18 07:24:25;;;;;;;559.80;57.85;;;5.20;99.90;;;;;;5005416;28;20041;-75
2022/01/18 07:26:52;;;;;;;636.30;62.58;;;5.10;99.90;;;;;;5005111;28;20069;-76
2022/01/18 07:29:19;;;;;;;551.75;56.63;;;5.10;99.90;;;;;;5039479;28;20572;-76
2022/01/18 07:31:49;;;;;;;682.38;69.00;;;5.20;99.90;;;;;;5042282;28;20068;-76
2022/01/18 07:34:16;;;;;;;596.90;63.85;;;5.20;99.90;;;;;;5041879;28;20673;-76
2022/01/18 07:36:43;;;;;;;631.55;62.13;;;5.10;99.90;;;;;;5033807;28;20525;-76
2022/01/18 07:39:10;;;;;;;653.90;68.13;;;5.10;99.90;;;;;;5040347;28;20076;-76
2022/01/18 07:41:37;;;;;;;688.40;76.03;;;5.10;99.90;;;;;;5033642;28;20139;-76
2022/01/18 07:44:04;;;;;;;630.47;70.88;;;5.10;99.90;;;;;;5024678;28;20395;-75
2022/01/18 07:46:31;;;;;;;637.20;67.32;;;5.10;99.90;;;;;;5034210;28;20041;-75
2022/01/18 07:48:58;;;;;;;629.42;66.65;;;5.20;99.90;;;;;;5021117;28;20059;-75
2022/01/18 07:51:24;;;;;;;650.50;71.18;;;5.20;99.90;;;;;;5036516;28;20050;-75
2022/01/18 07:53:51;;;;;;;537.10;61.78;;;5.20;99.90;;;;;;5021731;28;20089;-75
2022/01/18 07:56:18;;;;;;;521.13;61.15;;;5.10;99.90;;;;;;5021771;28;20535;-76
2022/01/18 07:58:45;;;;;;;599.50;68.80;;;5.10;99.90;;;;;;5020828;28;20065;-76
2022/01/18 08:01:11;;;;;;;516.80;61.20;;;5.20;99.90;;;;;;5018589;28;20088;-76
2022/01/18 08:03:38;;;;;;;466.33;57.53;;;5.20;99.90;;;;;;5041383;28;20075;-76
2022/01/18 08:06:05;;;;;;;540.80;66.05;;;5.20;99.90;;;;;;5018605;28;20475;-76
2022/01/18 08:08:33;;;;;;;465.55;56.10;;;5.20;99.90;;;;;;5038453;28;20045;-76
2022/01/18 08:11:00;;;;;;;537.00;62.53;;;5.20;99.90;;;;;;5031957;28;20099;-76
2022/01/18 08:13:36;;;;;;;548.58;62.40;;;5.20;99.90;;;;;;5024439;28;20494;-76
2022/01/18 08:16:48;;;;;;;546.45;62.38;;;5.30;99.90;;;;;;5020766;28;20061;-76
2022/01/18 08:18:52;;;;;;;623.03;76.93;;;5.30;99.90;;;;;;5020821;28;20132;-76
2022/01/18 08:21:19;;;;;;;560.95;67.20;;;5.30;99.90;;;;;;5022735;28;20049;-76
2022/01/18 08:23:46;;;;;;;581.75;67.38;;;5.30;99.90;;;;;;5041522;28;20669;-76
2022/01/18 08:26:13;;;;;;;585.95;71.18;;;5.30;99.90;;;;;;5038563;28;20136;-76
2022/01/18 08:28:39;;;;;;;531.58;62.15;;;5.20;99.90;;;;;;5020678;28;20049;-76
2022/01/18 08:31:06;;;;;;;637.65;70.50;;;5.20;99.90;;;;;;5003474;28;20330;-76
2022/01/18 08:33:33;;;;;;;479.63;60.20;;;5.20;99.90;;;;;;5003720;28;20107;-76
2022/01/18 08:36:05;;;;;;;529.65;64.40;;;5.30;99.90;;;;;;5022657;28;20475;-76
2022/01/18 08:38:33;;;;;;;526.60;67.57;;;5.30;99.90;;;;;;5018810;28;20056;-76
2022/01/18 08:41:02;;;;;;;500.27;65.07;;;5.30;99.90;;;;;;5009203;28;20045;-76
2022/01/18 08:43:33;;;;;;;439.00;62.55;;;5.30;99.90;;;;;;5040279;28;20080;-76
2022/01/18 08:46:00;;;;;;;345.25;55.80;;;5.30;99.90;;;;;;5037660;28;20057;-76
2022/01/18 08:48:27;;;;;;;422.13;57.33;;;5.40;99.90;;;;;;5019243;28;20126;-76
2022/01/18 08:50:55;;;;;;;317.08;50.28;;;5.40;99.90;;;;;;5032714;28;20774;-76
2022/01/18 08:53:21;;;;;;;380.65;51.55;;;5.40;99.90;;;;;;5021644;28;20503;-76
2022/01/18 08:55:48;;;;;;;339.00;55.70;;;5.40;99.90;;;;;;5027148;28;20574;-76
2022/01/18 08:58:15;;;;;;;277.20;52.30;;;5.50;99.90;;;;;;5025409;28;20474;-77
2022/01/18 09:00:42;;;;;;;140.02;35.80;;;5.60;99.90;;;;;;5015114;28;20082;-76
2022/01/18 09:03:10;;;;;;;141.95;36.33;;;5.60;99.90;;;;;;5035786;28;20076;-76
2022/01/18 09:05:38;;;;;;;108.50;29.63;;;5.70;99.90;;;;;;5040602;28;20172;-77
2022/01/18 09:08:07;;;;;;;129.88;33.08;;;5.70;99.90;;;;;;5033089;28;20036;-75
2022/01/18 09:10:34;;;;;;;126.13;33.60;;;5.70;99.90;;;;;;5018079;28;20158;-76
2022/01/18 09:13:03;;;;;;;109.43;32.38;;;5.80;99.90;;;;;;5013646;28;20056;-76
2022/01/18 09:15:30;;;;;;;130.80;38.38;;;5.80;99.90;;;;;;5014810;28;20053;-76
2022/01/18 09:17:57;;;;;;;106.32;32.40;;;5.80;99.90;;;;;;5032399;28;20342;-76
2022/01/18 09:20:24;;;;;;;89.60;27.58;;;5.80;99.90;;;;;;5033353;28;20409;-76
2022/01/18 09:22:52;;;;;;;92.30;28.58;;;5.80;99.90;;;;;;5035894;28;20052;-76
2022/01/18 09:25:21;;;;;;;90.20;27.42;;;5.80;99.90;;;;;;5028704;28;20293;-76
2022/01/18 09:27:49;;;;;;;78.10;26.65;;;5.80;99.90;;;;;;5036287;28;20122;-76
2022/01/18 09:30:16;;;;;;;95.57;27.20;;;5.80;99.90;;;;;;5031816;28;20048;-76
2022/01/18 09:32:44;;;;;;;95.45;27.58;;;5.80;99.90;;;;;;5021034;28;20472;-76
2022/01/18 09:35:12;;;;;;;95.10;27.60;;;5.80;99.90;;;;;;5039381;28;20075;-76
2022/01/18 09:37:39;;;;;;;90.72;27.13;;;5.80;99.90;;;;;;5020216;28;20053;-76
2022/01/18 09:40:08;;;;;;;98.03;27.83;;;5.70;99.90;;;;;;5029980;28;20251;-76
2022/01/18 09:42:37;;;;;;;108.10;31.02;;;5.70;99.90;;;;;;5037241;28;20132;-76
2022/01/18 09:45:07;;;;;;;124.05;33.80;;;5.70;99.90;;;;;;5039366;28;20040;-76
2022/01/18 09:47:35;;;;;;;134.82;36.75;;;5.80;99.90;;;;;;5037028;28;20048;-76
2022/01/18 09:50:04;;;;;;;105.30;28.52;;;5.80;99.90;;;;;;5039923;28;20704;-75
2022/01/18 09:52:31;;;;;;;101.15;29.20;;;5.80;99.90;;;;;;5019059;28;20420;-77
2022/01/18 09:55:00;;;;;;;86.68;27.02;;;5.80;99.90;;;;;;5001857;28;20055;-76
2022/01/18 09:57:27;;;;;;;106.75;29.33;;;5.80;99.90;;;;;;5018734;28;20049;-76
2022/01/18 09:59:54;;;;;;;103.88;28.92;;;5.80;99.90;;;;;;5028133;28;20115;-76
2022/01/18 10:02:20;;;;;;;97.43;27.33;;;5.90;99.90;;;;;;5004897;28;20532;-75
2022/01/18 10:04:49;;;;;;;120.60;31.95;;;5.90;99.90;;;;;;5022767;28;20046;-76
2022/01/18 10:07:16;;;;;;;110.72;31.63;;;6.00;99.90;;;;;;5028287;28;20457;-76
2022/01/18 10:09:42;;;;;;;105.47;28.00;;;5.90;99.90;;;;;;5029224;28;20052;-77
2022/01/18 10:12:12;;;;;;;82.18;26.83;;;5.90;99.90;;;;;;5017979;28;20056;-76
2022/01/18 10:14:59;;;;;;;82.85;25.95;;;5.90;99.90;;;;;;5021349;28;20080;-76
2022/01/18 10:17:37;;;;;;;91.07;30.08;;;5.90;99.90;;;;;;5037481;28;20076;-76
2022/01/18 10:20:19;;;;;;;78.68;25.52;;;6.00;99.90;;;;;;5021512;28;20041;-77
2022/01/18 10:22:49;;;;;;;89.45;25.60;;;5.90;99.90;;;;;;5040659;28;20103;-76
2022/01/18 10:25:16;;;;;;;86.43;24.13;;;6.00;99.90;;;;;;5016445;28;20041;-76
2022/01/18 10:27:43;;;;;;;80.22;23.88;;;6.00;99.90;;;;;;5036993;28;20548;-76
2022/01/18 10:30:15;;;;;;;73.75;22.60;;;5.90;99.90;;;;;;5038191;28;20102;-76
2022/01/18 10:32:59;;;;;;;83.53;24.75;;;5.80;99.90;;;;;;5040410;28;20098;-76
2022/01/18 10:35:27;;;;;;;84.88;27.95;;;5.70;99.90;;;;;;5041761;28;20043;-76
2022/01/18 10:37:54;;;;;;;99.80;28.42;;;5.70;99.90;;;;;;5033160;28;20469;-76
2022/01/18 10:40:26;;;;;;;90.28;26.70;;;5.80;99.90;;;;;;5031077;28;20081;-76
2022/01/18 10:42:54;;;;;;;78.15;22.88;;;5.80;99.90;;;;;;5041995;28;20049;-76
2022/01/18 10:45:31;;;;;;;75.57;22.27;;;5.80;99.90;;;;;;5025576;28;20045;-76
2022/01/18 10:48:01;;;;;;;70.47;22.23;;;5.80;99.90;;;;;;5043282;28;20060;-76
2022/01/18 10:50:34;;;;;;;80.65;23.70;;;5.90;99.90;;;;;;5024693;28;20106;-77
2022/01/18 10:53:17;;;;;;;69.82;22.60;;;5.90;99.90;;;;;;5043221;28;20041;-77
2022/01/18 10:55:46;;;;;;;61.03;22.33;;;5.90;99.90;;;;;;5042471;28;20049;-76
2022/01/18 10:58:22;;;;;;;78.07;21.10;;;5.80;99.90;;;;;;5041079;28;20041;-77
2022/01/18 11:00:50;;;;;;;69.13;21.65;;;5.90;99.90;;;;;;5024502;28;20057;-77
2022/01/18 11:03:17;;;;;;;68.80;22.13;;;6.00;99.90;;;;;;5024626;28;20091;-76
2022/01/18 11:05:46;;;;;;;62.55;20.98;;;6.00;99.90;;;;;;5021382;28;20543;-75
2022/01/18 11:08:15;;;;;;;64.38;20.27;;;5.90;99.90;;;;;;5040171;28;20052;-81
2022/01/18 11:10:47;;;;;;;65.97;21.92;;;6.00;99.90;;;;;;5035875;28;20130;-79
2022/01/18 11:13:34;;;;;;;66.82;22.35;;;6.00;99.90;;;;;;5016604;28;20064;-79
2022/01/18 11:16:11;;;;;;;61.97;19.58;;;6.10;99.90;;;;;;5046313;28;20341;-81
2022/01/18 11:18:40;;;;;;;52.65;18.58;;;6.10;99.90;;;;;;5030025;28;20049;-80
2022/01/18 11:21:07;;;;;;;54.50;20.05;;;6.10;99.90;;;;;;5029612;28;20465;-80
2022/01/18 11:23:35;;;;;;;55.53;18.27;;;6.10;99.90;;;;;;5031039;28;20065;-79
2022/01/18 11:26:02;;;;;;;58.33;18.42;;;6.10;99.90;;;;;;5045813;28;20110;-80
2022/01/18 11:28:33;;;;;;;53.47;16.98;;;6.10;99.90;;;;;;5028742;28;20243;-82
2022/01/18 11:31:00;;;;;;;55.75;18.75;;;6.20;99.90;;;;;;5046320;28;20580;-81
2022/01/18 11:33:28;;;;;;;43.25;17.55;;;6.20;99.90;;;;;;5048191;28;20548;-80
2022/01/18 11:36:12;;;;;;;50.63;18.65;;;6.20;99.90;;;;;;5045939;28;20045;-79
2022/01/18 11:38:50;;;;;;;40.58;17.27;;;6.30;99.90;;;;;;5041375;28;20563;-81
2022/01/18 11:41:23;;;;;;;52.00;18.83;;;6.30;99.90;;;;;;5035461;28;20135;-82
2022/01/18 11:43:51;;;;;;;50.78;17.77;;;6.40;99.90;;;;;;5046829;28;20063;-79
2022/01/18 11:46:30;;;;;;;44.53;17.48;;;6.40;99.90;;;;;;5040868;28;20049;-81
2022/01/18 11:49:04;;;;;;;41.67;15.98;;;6.50;99.90;;;;;;5043534;28;20063;-80
2022/01/18 11:51:57;;;;;;;49.63;15.68;;;6.40;99.90;;;;;;5044795;28;20304;-81
2022/01/18 11:57:23;;;;;;;31.48;13.27;;;6.60;99.90;;;;;;5044938;28;20052;-78
2022/01/18 11:59:51;;;;;;;36.97;14.15;;;6.60;99.90;;;;;;5025977;28;20370;-81
2022/01/18 12:02:43;;;;;;;41.72;13.95;;;6.50;99.90;;;;;;5043746;28;20564;-77
2022/01/18 12:05:19;;;;;;;41.30;16.00;;;6.50;99.90;;;;;;5039137;28;20056;-73
2022/01/18 12:07:53;;;;;;;45.60;16.05;;;6.50;99.90;;;;;;5022477;28;20722;-73
2022/01/18 12:10:31;;;;;;;43.80;15.52;;;6.40;99.90;;;;;;5030589;28;20053;-73
2022/01/18 12:13:02;;;;;;;36.83;16.33;;;6.40;99.90;;;;;;5041910;28;20040;-73
2022/01/18 12:15:46;;;;;;;33.20;13.70;;;6.50;99.90;;;;;;5041168;28;20441;-73
2022/01/18 12:18:28;;;;;;;28.13;13.73;;;6.50;99.90;;;;;;5023698;28;20060;-74
2022/01/18 12:20:58;;;;;;;41.05;13.70;;;6.50;99.90;;;;;;5022713;28;20068;-72
2022/01/18 12:23:32;;;;;;;40.63;13.85;;;6.60;99.90;;;;;;5040360;28;20459;-73
2022/01/18 12:26:20;;;;;;;42.88;14.18;;;6.60;99.90;;;;;;5018878;28;20111;-73
2022/01/18 12:29:25;;;;;;;32.33;12.77;;;6.60;99.90;;;;;;5002381;28;20111;-74
2022/01/18 12:34:24;;;;;;;32.35;13.20;;;6.70;99.90;;;;;;5034551;28;20578;-73
2022/01/18 12:36:53;;;;;;;33.42;12.88;;;6.60;99.90;;;;;;5027584;28;20788;-73
2022/01/18 12:39:21;;;;;;;29.63;13.60;;;6.60;99.90;;;;;;5037480;28;20061;-73
2022/01/18 12:41:55;;;;;;;44.97;15.23;;;6.50;99.90;;;;;;5031130;28;20073;-73
2022/01/18 12:44:22;;;;;;;36.03;13.20;;;6.50;99.90;;;;;;5020993;28;20076;-74
2022/01/18 12:46:50;;;;;;;27.15;12.02;;;6.50;99.90;;;;;;5039705;28;20423;-73
2022/01/18 12:49:18;;;;;;;33.80;14.38;;;6.60;99.90;;;;;;5021644;28;20084;-75
2022/01/18 12:52:05;;;;;;;32.42;11.73;;;6.60;99.90;;;;;;5027524;28;20063;-75
2022/01/18 12:54:42;;;;;;;31.48;11.90;;;6.60;99.90;;;;;;5021001;28;20712;-72
2022/01/18 12:57:18;;;;;;;34.38;13.05;;;6.50;99.90;;;;;;5019183;28;20077;-73
2022/01/18 13:00:07;;;;;;;36.05;15.63;;;6.40;99.90;;;;;;5019674;28;20662;-73
2022/01/18 13:02:34;;;;;;;30.42;13.15;;;6.40;99.90;;;;;;5040222;28;20076;-73
2022/01/18 13:05:07;;;;;;;39.55;15.88;;;6.30;99.90;;;;;;5023149;28;20481;-73
2022/01/18 13:07:52;;;;;;;36.58;11.68;;;6.30;99.90;;;;;;4989568;28;20675;-74
2022/01/18 13:10:19;;;;;;;26.00;10.43;;;6.40;99.90;;;;;;5030844;28;20692;-73
2022/01/18 13:12:46;;;;;;;25.02;10.50;;;6.40;99.90;;;;;;5030340;28;20103;-73
2022/01/18 13:15:23;;;;;;;28.23;8.00;;;6.40;99.90;;;;;;5038873;28;20051;-74
2022/01/18 13:23:53;;;;;;;14.90;6.88;;;6.50;99.90;;;;;;5040655;28;20584;-74
2022/01/18 13:26:14;;;;;;;21.55;8.65;;;6.50;99.90;;;;;;5039188;28;20045;-74
2022/01/18 13:28:41;;;;;;;24.65;8.20;;;6.50;99.90;;;;;;5021824;28;20136;-74
2022/01/18 13:31:21;;;;;;;31.92;8.65;;;6.50;99.90;;;;;;5037908;28;20127;-73
2022/01/18 13:33:57;;;;;;;27.10;8.32;;;6.40;99.90;;;;;;5017966;28;20119;-73
2022/01/18 13:36:25;;;;;;;26.52;8.23;;;6.50;99.90;;;;;;5020401;28;20042;-74
2022/01/18 13:38:51;;;;;;;18.10;7.38;;;6.40;99.90;;;;;;5035420;28;20131;-73
2022/01/18 13:41:19;;;;;;;22.38;6.53;;;6.40;99.90;;;;;;5030835;28;20531;-73
2022/01/18 13:43:48;;;;;;;21.42;7.50;;;6.50;99.90;;;;;;5040440;28;20621;-73
2022/01/18 13:46:25;;;;;;;18.75;7.72;;;6.40;99.90;;;;;;5034381;28;20045;-73
2022/01/18 13:49:06;;;;;;;22.52;7.28;;;6.50;99.90;;;;;;5021552;28;20049;-74
2022/01/18 13:51:33;;;;;;;20.48;8.27;;;6.40;99.90;;;;;;5039175;28;20099;-74
2022/01/18 13:54:06;;;;;;;26.08;8.68;;;6.40;99.90;;;;;;5040886;28;20050;-73
2022/01/18 13:56:34;;;;;;;29.98;9.60;;;6.50;99.90;;;;;;5039859;28;20045;-74
2022/01/18 13:59:05;;;;;;;27.20;9.73;;;6.50;99.90;;;;;;5040336;28;20122;-74
2022/01/18 14:01:34;;;;;;;20.65;8.73;;;6.50;99.90;;;;;;5039411;28;20053;-73
2022/01/18 14:04:18;;;;;;;26.65;10.43;;;6.40;99.90;;;;;;5040300;28;20052;-73
2022/01/18 14:06:46;;;;;;;23.58;8.50;;;6.50;99.90;;;;;;5017252;28;20108;-74
2022/01/18 14:09:14;;;;;;;25.08;8.75;;;6.50;99.90;;;;;;5041033;28;20106;-73
2022/01/18 14:11:50;;;;;;;23.95;8.57;;;6.60;99.90;;;;;;5030377;28;20045;-74